createdAt,value
2022-11-30T00:00:12.172Z,60.90
2022-11-30T00:02:39.714Z,70.40
2022-11-30T00:05:07.893Z,60.38
2022-11-30T00:07:35.768Z,62.03
2022-11-30T00:10:09.756Z,67.70
2022-11-30T00:12:37.854Z,69.28
2022-11-30T00:15:06.150Z,61.33
2022-11-30T00:17:33.207Z,59.58
2022-11-30T00:20:05.820Z,68.15
2022-11-30T00:22:35.850Z,63.63
2022-11-30T00:25:04.958Z,68.35
2022-11-30T00:27:39.092Z,60.40
2022-11-30T00:30:08.311Z,66.80
2022-11-30T00:32:35.513Z,67.60
2022-11-30T00:35:03.959Z,67.85
2022-11-30T00:37:31.537Z,71.38
2022-11-30T00:43:15.334Z,63.85
2022-11-30T00:45:48.695Z,62.92
2022-11-30T00:48:17.536Z,67.35
2022-11-30T00:50:50.237Z,66.70
2022-11-30T00:53:18.112Z,82.05
2022-11-30T00:56:11.411Z,63.85
2022-11-30T00:58:40.069Z,65.45
2022-11-30T01:01:08.309Z,67.75
2022-11-30T01:04:02.877Z,75.00
2022-11-30T01:06:31.164Z,70.28
2022-11-30T01:09:03.797Z,67.05
2022-11-30T01:11:37.192Z,68.55
2022-11-30T01:14:05.261Z,74.35
2022-11-30T01:16:39.043Z,70.78
2022-11-30T01:19:07.175Z,67.85
2022-11-30T01:21:35.207Z,70.60
2022-11-30T01:24:03.191Z,63.17
2022-11-30T01:26:31.146Z,72.15
2022-11-30T01:28:59.223Z,74.75
2022-11-30T01:31:27.200Z,70.15
2022-11-30T01:33:56.112Z,69.82
2022-11-30T01:36:28.036Z,65.40
2022-11-30T01:39:01.271Z,73.53
2022-11-30T01:41:31.439Z,77.65
2022-11-30T01:44:15.499Z,70.53
2022-11-30T01:47:03.284Z,67.28
2022-11-30T01:50:13.720Z,73.07
2022-11-30T01:52:46.989Z,74.97
2022-11-30T01:55:31.878Z,75.63
2022-11-30T01:58:07.491Z,67.43
2022-11-30T02:00:40.642Z,70.53
2022-11-30T02:03:20.020Z,76.40
2022-11-30T02:05:47.203Z,78.40
2022-11-30T02:08:19.576Z,70.75
2022-11-30T02:10:52.780Z,75.32
2022-11-30T02:14:10.886Z,81.43
2022-11-30T02:17:11.893Z,83.22
2022-11-30T02:20:02.332Z,73.53
2022-11-30T02:23:17.406Z,79.28
2022-11-30T02:29:08.979Z,62.55
2022-11-30T02:32:08.829Z,63.25
2022-11-30T02:34:38.548Z,67.63
2022-11-30T02:37:08.004Z,72.53
2022-11-30T02:39:42.100Z,68.85
2022-11-30T02:42:13.331Z,76.78
2022-11-30T02:44:51.332Z,83.63
2022-11-30T02:47:48.848Z,80.85
2022-11-30T02:50:30.130Z,66.38
2022-11-30T02:52:57.665Z,84.75
2022-11-30T02:58:43.316Z,71.03
2022-11-30T03:01:20.252Z,74.47
2022-11-30T03:03:47.239Z,73.88
2022-11-30T03:06:20.151Z,81.22
2022-11-30T03:08:47.128Z,83.70
2022-11-30T03:11:19.204Z,87.00
2022-11-30T03:13:51.351Z,73.68
2022-11-30T03:16:19.172Z,81.95
2022-11-30T03:18:56.212Z,78.20
2022-11-30T03:21:23.158Z,73.72
2022-11-30T03:24:15.833Z,73.95
2022-11-30T03:26:43.169Z,72.22
2022-11-30T03:29:15.223Z,78.32
2022-11-30T03:31:43.163Z,87.50
2022-11-30T03:34:11.145Z,80.30
2022-11-30T03:36:39.152Z,81.60
2022-11-30T03:41:59.119Z,85.25
2022-11-30T03:44:31.143Z,81.88
2022-11-30T03:46:59.139Z,83.38
2022-11-30T03:49:32.269Z,89.45
2022-11-30T03:51:59.190Z,83.93
2022-11-30T03:54:27.119Z,85.85
2022-11-30T03:57:24.547Z,81.97
2022-11-30T03:59:57.167Z,84.07
2022-11-30T04:02:25.287Z,92.47
2022-11-30T04:04:53.128Z,77.68
2022-11-30T04:07:21.236Z,92.28
2022-11-30T04:09:49.142Z,80.93
2022-11-30T04:15:33.159Z,86.70
2022-11-30T04:18:01.225Z,88.85
2022-11-30T04:20:29.192Z,97.10
2022-11-30T04:22:57.968Z,76.18
2022-11-30T04:25:51.817Z,74.88
2022-11-30T04:28:19.469Z,88.63
2022-11-30T04:30:52.151Z,84.45
2022-11-30T04:33:24.277Z,91.53
2022-11-30T04:35:55.530Z,88.28
2022-11-30T04:38:24.208Z,88.30
2022-11-30T04:40:51.671Z,97.03
2022-11-30T04:43:19.570Z,81.22
2022-11-30T04:45:52.662Z,89.30
2022-11-30T04:48:21.132Z,97.43
2022-11-30T04:51:13.183Z,87.78
2022-11-30T04:53:41.110Z,89.68
2022-11-30T04:59:03.338Z,85.38
2022-11-30T05:01:31.249Z,90.75
2022-11-30T05:04:00.135Z,85.80
2022-11-30T05:07:18.287Z,83.10
2022-11-30T05:10:09.972Z,91.95
2022-11-30T05:12:37.180Z,95.35
2022-11-30T05:15:05.754Z,92.85
2022-11-30T05:17:39.586Z,91.68
2022-11-30T05:20:13.579Z,87.30
2022-11-30T05:22:41.229Z,87.82
2022-11-30T05:25:09.813Z,82.47
2022-11-30T05:27:37.592Z,87.60
2022-11-30T05:30:07.031Z,88.38
2022-11-30T05:32:35.311Z,94.03
2022-11-30T05:35:03.583Z,81.60
2022-11-30T05:37:31.151Z,80.07
2022-11-30T05:39:59.359Z,90.85
2022-11-30T05:45:24.151Z,92.03
2022-11-30T05:47:51.767Z,82.57
2022-11-30T05:50:45.207Z,65.55
2022-11-30T05:53:13.136Z,93.32
2022-11-30T05:55:42.271Z,85.25
2022-11-30T05:58:40.248Z,85.50
2022-11-30T06:04:08.526Z,75.95
2022-11-30T06:06:37.288Z,81.22
2022-11-30T06:09:05.160Z,72.72
2022-11-30T06:14:25.215Z,95.68
2022-11-30T06:16:53.210Z,86.88
2022-11-30T06:19:21.254Z,78.95
2022-11-30T06:21:49.160Z,91.40
2022-11-30T06:24:17.151Z,72.20
2022-11-30T06:26:45.178Z,81.80
2022-11-30T06:32:11.096Z,78.13
2022-11-30T06:34:39.136Z,74.88
2022-11-30T06:37:07.195Z,86.70
2022-11-30T06:42:30.115Z,72.90
2022-11-30T06:45:03.780Z,74.32
2022-11-30T06:47:31.249Z,72.20
2022-11-30T06:50:28.304Z,81.88
2022-11-30T06:53:21.222Z,81.90
2022-11-30T06:55:49.160Z,75.80
2022-11-30T06:58:17.163Z,68.15
2022-11-30T07:00:54.195Z,83.13
2022-11-30T07:03:21.143Z,69.93
2022-11-30T07:05:49.161Z,73.28
2022-11-30T07:08:17.552Z,74.50
2022-11-30T07:10:51.134Z,82.40
2022-11-30T07:13:19.555Z,73.22
2022-11-30T07:15:53.205Z,71.95
2022-11-30T07:18:21.172Z,73.88
2022-11-30T07:20:49.161Z,65.90
2022-11-30T07:23:35.634Z,69.20
2022-11-30T07:26:06.748Z,76.47
2022-11-30T07:28:40.538Z,79.25
2022-11-30T07:31:25.857Z,79.50
2022-11-30T07:33:53.739Z,73.88
2022-11-30T07:36:22.867Z,71.10
2022-11-30T07:38:56.519Z,69.68
2022-11-30T07:41:24.057Z,62.33
2022-11-30T07:43:57.445Z,69.75
2022-11-30T07:46:25.323Z,68.57
2022-11-30T07:48:57.141Z,63.25
2022-11-30T07:51:25.353Z,73.97
2022-11-30T07:53:56.563Z,59.85
2022-11-30T07:56:30.836Z,64.53
2022-11-30T07:59:00.933Z,65.13
2022-11-30T08:01:53.258Z,59.10
2022-11-30T08:04:26.387Z,58.20
2022-11-30T08:06:54.346Z,71.65
2022-11-30T08:09:49.026Z,61.15
2022-11-30T08:12:17.420Z,69.53
2022-11-30T08:15:18.244Z,56.03
2022-11-30T08:17:37.165Z,56.95
2022-11-30T08:20:08.060Z,69.97
2022-11-30T08:22:35.919Z,58.67
2022-11-30T08:25:03.429Z,60.30
2022-11-30T08:27:31.170Z,54.00
2022-11-30T08:30:27.739Z,55.35
2022-11-30T08:32:59.132Z,65.53
2022-11-30T08:35:51.102Z,54.05
2022-11-30T08:38:19.148Z,53.25
2022-11-30T08:40:47.142Z,53.08
2022-11-30T08:43:15.582Z,56.50
2022-11-30T08:45:43.200Z,56.53
2022-11-30T08:48:11.148Z,58.20
2022-11-30T08:50:39.128Z,51.72
2022-11-30T08:53:11.187Z,47.70
2022-11-30T08:55:39.149Z,52.17
2022-11-30T08:58:07.349Z,58.63
2022-11-30T09:00:35.136Z,53.25
2022-11-30T09:03:07.187Z,48.85
2022-11-30T09:05:35.214Z,39.38
2022-11-30T09:08:03.339Z,46.38
2022-11-30T09:10:31.155Z,49.63
2022-11-30T09:13:23.132Z,44.03
2022-11-30T09:15:55.721Z,56.28
2022-11-30T09:18:23.145Z,48.97
2022-11-30T09:21:02.573Z,48.05
2022-11-30T09:23:31.504Z,45.38
2022-11-30T09:26:00.964Z,43.55
2022-11-30T09:28:39.725Z,53.67
2022-11-30T09:31:13.075Z,50.92
2022-11-30T09:33:42.000Z,47.55
2022-11-30T09:36:11.898Z,53.97
2022-11-30T09:38:39.891Z,52.10
2022-11-30T09:41:25.289Z,45.08
2022-11-30T09:44:21.597Z,44.53
2022-11-30T09:47:33.165Z,46.22
2022-11-30T09:50:14.436Z,44.72
2022-11-30T09:55:42.764Z,42.13
2022-11-30T09:58:36.202Z,38.22
2022-11-30T10:01:09.701Z,44.38
2022-11-30T10:03:37.512Z,47.22
2022-11-30T10:06:51.157Z,43.28
2022-11-30T10:10:31.078Z,47.20
2022-11-30T10:13:12.431Z,38.13
2022-11-30T10:15:57.557Z,43.80
2022-11-30T10:18:40.248Z,42.00
2022-11-30T10:21:22.564Z,37.25
2022-11-30T10:24:29.177Z,39.25
2022-11-30T10:26:58.654Z,34.67
2022-11-30T10:29:35.481Z,48.47
2022-11-30T10:32:17.597Z,46.88
2022-11-30T10:35:15.457Z,42.60
2022-11-30T10:37:44.538Z,38.70
2022-11-30T10:40:43.581Z,40.08
2022-11-30T10:46:19.826Z,39.67
2022-11-30T10:49:02.760Z,36.00
2022-11-30T10:51:59.750Z,41.75
2022-11-30T10:55:00.538Z,46.58
2022-11-30T10:57:32.408Z,46.67
2022-11-30T11:00:02.964Z,35.53
2022-11-30T11:02:43.431Z,39.72
2022-11-30T11:05:23.088Z,34.17
2022-11-30T11:08:06.864Z,39.17
2022-11-30T11:10:59.442Z,40.53
2022-11-30T11:13:42.044Z,36.25
2022-11-30T11:16:12.035Z,40.95
2022-11-30T11:18:56.665Z,35.08
2022-11-30T11:21:29.210Z,36.38
2022-11-30T11:23:58.025Z,41.13
2022-11-30T11:26:27.346Z,38.92
2022-11-30T11:28:59.387Z,34.80
2022-11-30T11:31:51.178Z,35.08
2022-11-30T11:34:36.703Z,38.00
2022-11-30T11:37:38.170Z,33.47
2022-11-30T11:40:07.995Z,41.35
2022-11-30T11:42:41.161Z,36.63
2022-11-30T11:45:17.035Z,33.70
2022-11-30T11:47:45.857Z,38.53
2022-11-30T11:50:13.116Z,36.30
2022-11-30T11:52:41.232Z,32.72
2022-11-30T11:55:16.903Z,36.58
2022-11-30T11:57:56.485Z,35.47
2022-11-30T12:00:25.361Z,38.17
2022-11-30T12:03:19.295Z,30.75
2022-11-30T12:05:53.579Z,37.22
2022-11-30T12:08:43.160Z,36.85
2022-11-30T12:11:18.518Z,34.50
2022-11-30T12:13:51.597Z,35.30
2022-11-30T12:16:29.973Z,39.30
2022-11-30T12:19:06.644Z,31.92
2022-11-30T12:21:54.465Z,36.38
2022-11-30T12:24:26.393Z,37.35
2022-11-30T12:27:17.683Z,39.95
2022-11-30T12:29:59.720Z,38.70
2022-11-30T12:33:02.564Z,35.03
2022-11-30T12:35:41.877Z,37.35
2022-11-30T12:38:37.078Z,34.53
2022-11-30T12:41:32.636Z,38.92
2022-11-30T12:44:42.595Z,42.78
2022-11-30T12:47:46.254Z,39.08
2022-11-30T12:50:31.115Z,45.47
2022-11-30T12:53:23.509Z,37.20
2022-11-30T12:56:10.448Z,46.75
2022-11-30T12:58:58.149Z,38.50
2022-11-30T13:01:31.247Z,40.40
2022-11-30T13:04:08.944Z,41.40
2022-11-30T13:07:00.263Z,46.85
2022-11-30T13:09:38.367Z,44.97
2022-11-30T13:12:22.372Z,49.00
2022-11-30T13:14:51.196Z,51.95
2022-11-30T13:17:24.202Z,42.72
2022-11-30T13:20:19.625Z,43.97
2022-11-30T13:23:08.610Z,55.83
2022-11-30T13:28:46.428Z,49.25
2022-11-30T13:31:25.135Z,54.25
2022-11-30T13:33:53.084Z,49.72
2022-11-30T13:36:45.240Z,55.25
2022-11-30T13:39:27.343Z,60.63
2022-11-30T13:42:01.219Z,57.13
2022-11-30T13:44:37.097Z,51.75
2022-11-30T13:47:21.555Z,57.80
2022-11-30T13:49:55.785Z,52.67
2022-11-30T13:53:01.021Z,63.58
2022-11-30T13:55:36.231Z,55.83
2022-11-30T13:58:08.303Z,56.53
2022-11-30T14:00:35.116Z,58.90
2022-11-30T14:03:20.942Z,61.78
2022-11-30T14:05:56.138Z,53.28
2022-11-30T14:08:23.179Z,64.25
2022-11-30T14:10:51.789Z,66.15
2022-11-30T14:13:27.692Z,66.15
2022-11-30T14:15:58.238Z,59.17
2022-11-30T14:18:42.232Z,59.15
2022-11-30T14:21:22.511Z,63.65
2022-11-30T14:27:07.391Z,67.78
2022-11-30T14:29:37.103Z,64.45
2022-11-30T14:32:11.653Z,61.35
2022-11-30T14:34:45.971Z,68.28
2022-11-30T14:37:26.533Z,62.08
2022-11-30T14:39:59.325Z,65.50
2022-11-30T14:42:29.963Z,57.63
2022-11-30T14:44:57.430Z,67.60
2022-11-30T14:47:32.454Z,69.80
2022-11-30T14:53:27.216Z,70.18
2022-11-30T14:56:26.746Z,74.80
2022-11-30T14:59:30.840Z,64.95
2022-11-30T15:02:02.512Z,75.85
2022-11-30T15:04:30.004Z,64.90
2022-11-30T15:07:03.354Z,67.38
2022-11-30T15:09:37.652Z,70.57
2022-11-30T15:15:11.544Z,74.20
2022-11-30T15:17:53.053Z,68.40
2022-11-30T15:20:53.881Z,68.38
2022-11-30T15:23:51.126Z,74.28
2022-11-30T15:26:19.387Z,77.97
2022-11-30T15:29:16.814Z,75.00
2022-11-30T15:37:48.167Z,73.28
2022-11-30T15:40:21.521Z,65.53
2022-11-30T15:45:53.236Z,72.35
2022-11-30T15:48:28.575Z,74.22
2022-11-30T15:50:57.695Z,74.82
2022-11-30T15:53:31.094Z,77.68
2022-11-30T15:56:08.515Z,78.28
2022-11-30T15:58:47.112Z,70.63
2022-11-30T16:01:22.348Z,79.47
2022-11-30T16:03:55.168Z,83.40
2022-11-30T16:06:26.494Z,87.38
2022-11-30T16:08:53.851Z,71.22
2022-11-30T16:11:21.832Z,81.35
2022-11-30T16:13:54.272Z,76.63
2022-11-30T16:16:25.947Z,79.47
2022-11-30T16:18:58.166Z,72.55
2022-11-30T16:21:25.438Z,76.28
2022-11-30T16:23:58.550Z,73.40
2022-11-30T16:29:15.138Z,77.38
2022-11-30T16:31:43.217Z,66.88
2022-11-30T16:34:40.175Z,80.38
2022-11-30T16:37:14.645Z,62.45
2022-11-30T16:39:43.291Z,60.22
2022-11-30T16:42:40.226Z,68.35
2022-11-30T16:45:22.449Z,65.25
2022-11-30T16:48:15.166Z,68.97
2022-11-30T16:50:44.591Z,80.13
2022-11-30T16:53:17.104Z,69.80
2022-11-30T16:55:45.378Z,70.95
2022-11-30T16:58:39.345Z,73.03
2022-11-30T17:01:14.520Z,66.05
2022-11-30T17:03:46.930Z,66.45
2022-11-30T17:06:23.343Z,71.65
2022-11-30T17:08:51.259Z,76.07
2022-11-30T17:11:30.119Z,77.00
2022-11-30T17:14:03.255Z,72.43
2022-11-30T17:16:31.293Z,94.20
2022-11-30T17:19:04.322Z,91.60
2022-11-30T17:22:00.839Z,83.45
2022-11-30T17:24:29.253Z,91.80
2022-11-30T17:26:57.624Z,94.85
2022-11-30T17:29:25.369Z,99.07
2022-11-30T17:31:53.748Z,105.72
2022-11-30T17:34:27.202Z,97.97
2022-11-30T17:36:56.603Z,96.85
2022-11-30T17:39:29.191Z,102.25
2022-11-30T17:42:02.291Z,84.82
2022-11-30T17:44:34.141Z,95.43
2022-11-30T17:47:01.137Z,90.03
2022-11-30T17:49:34.237Z,94.22
2022-11-30T17:52:01.180Z,98.38
2022-11-30T17:54:29.417Z,90.47
2022-11-30T17:56:59.072Z,105.32
2022-11-30T17:59:35.338Z,99.72
2022-11-30T18:02:03.283Z,84.45
2022-11-30T18:04:31.148Z,86.55
2022-11-30T18:06:59.216Z,95.30
2022-11-30T18:09:27.718Z,87.18
2022-11-30T18:11:55.323Z,90.68
2022-11-30T18:14:27.182Z,92.75
2022-11-30T18:17:00.295Z,90.90
2022-11-30T18:19:27.271Z,86.13
2022-11-30T18:21:55.473Z,82.97
2022-11-30T18:24:25.527Z,83.47
2022-11-30T18:26:53.625Z,89.68
2022-11-30T18:29:21.161Z,88.28
2022-11-30T18:31:58.253Z,84.45
2022-11-30T18:34:25.531Z,67.63
2022-11-30T18:36:58.147Z,77.38
2022-11-30T18:39:25.235Z,77.25
2022-11-30T18:41:53.363Z,69.78
2022-11-30T18:47:37.106Z,75.40
2022-11-30T18:50:09.410Z,81.82
2022-11-30T18:52:37.175Z,73.38
2022-11-30T18:55:10.528Z,76.28
2022-11-30T18:57:37.155Z,73.43
2022-11-30T19:00:05.874Z,72.13
2022-11-30T19:02:34.294Z,71.30
2022-11-30T19:05:01.173Z,78.22
2022-11-30T19:07:35.377Z,71.05
2022-11-30T19:10:08.549Z,82.20
2022-11-30T19:12:37.127Z,78.18
2022-11-30T19:15:30.060Z,72.80
2022-11-30T19:17:57.195Z,69.20
2022-11-30T19:20:29.209Z,72.07
2022-11-30T19:22:57.136Z,76.65
2022-11-30T19:25:25.149Z,71.90
2022-11-30T19:27:57.167Z,77.68
2022-11-30T19:30:26.287Z,76.22
2022-11-30T19:32:53.642Z,80.82
2022-11-30T19:35:22.952Z,77.32
2022-11-30T19:37:55.265Z,71.63
2022-11-30T19:40:23.130Z,78.45
2022-11-30T19:42:51.173Z,66.32
2022-11-30T19:45:24.214Z,85.43
2022-11-30T19:47:51.239Z,76.40
2022-11-30T19:50:19.190Z,74.80
2022-11-30T19:52:47.253Z,74.75
2022-11-30T19:55:15.260Z,70.75
2022-11-30T19:57:43.147Z,76.20
2022-11-30T20:03:10.017Z,71.90
2022-11-30T20:08:34.465Z,68.05
2022-11-30T20:11:01.141Z,70.63
2022-11-30T20:13:30.358Z,71.97
2022-11-30T20:15:57.207Z,77.30
2022-11-30T20:18:25.192Z,72.78
2022-11-30T20:20:53.166Z,75.72
2022-11-30T20:23:21.161Z,78.07
2022-11-30T20:25:49.131Z,68.65
2022-11-30T20:28:17.122Z,64.68
2022-11-30T20:31:13.289Z,71.90
2022-11-30T20:33:43.918Z,73.57
2022-11-30T20:36:12.167Z,79.38
2022-11-30T20:38:39.638Z,63.15
2022-11-30T20:41:17.397Z,74.60
2022-11-30T20:43:45.717Z,74.88
2022-11-30T20:46:28.224Z,76.00
2022-11-30T20:48:55.914Z,73.45
2022-11-30T20:51:32.554Z,62.92
2022-11-30T20:54:03.336Z,73.72
2022-11-30T20:56:31.427Z,78.60
2022-11-30T20:59:03.560Z,68.28
2022-11-30T21:01:31.184Z,67.57
2022-11-30T21:04:00.649Z,72.80
2022-11-30T21:06:30.278Z,65.65
2022-11-30T21:09:03.636Z,72.40
2022-11-30T21:11:31.429Z,66.00
2022-11-30T21:13:59.409Z,65.45
2022-11-30T21:16:29.667Z,63.38
2022-11-30T21:18:59.251Z,75.38
2022-11-30T21:21:35.272Z,64.88
2022-11-30T21:24:06.772Z,71.75
2022-11-30T21:29:57.157Z,65.28
2022-11-30T21:32:29.202Z,73.90
2022-11-30T21:34:57.587Z,64.97
2022-11-30T21:37:25.523Z,64.25
2022-11-30T21:39:53.151Z,64.47
2022-11-30T21:42:26.195Z,69.82
2022-11-30T21:44:53.166Z,68.82
2022-11-30T21:47:21.197Z,68.60
2022-11-30T21:49:53.221Z,71.90
2022-11-30T21:52:21.186Z,64.70
2022-11-30T21:54:53.832Z,69.18
2022-11-30T21:57:21.920Z,58.28
2022-11-30T22:00:15.587Z,63.13
2022-11-30T22:02:43.161Z,67.18
2022-11-30T22:05:11.135Z,71.00
2022-11-30T22:07:45.649Z,66.13
2022-11-30T22:10:13.154Z,62.40
2022-11-30T22:12:41.143Z,71.00
2022-11-30T22:15:09.796Z,69.43
2022-11-30T22:18:02.363Z,69.13
2022-11-30T22:20:29.154Z,66.03
2022-11-30T22:23:01.151Z,63.17
2022-11-30T22:25:53.119Z,63.58
2022-11-30T22:28:50.755Z,69.78
2022-11-30T22:34:13.572Z,67.78
2022-11-30T22:36:43.192Z,58.63
2022-11-30T22:39:21.703Z,63.65
2022-11-30T22:44:43.136Z,65.38
2022-11-30T22:47:17.590Z,67.18
2022-11-30T22:50:11.634Z,68.68
2022-11-30T22:53:01.859Z,67.32
2022-11-30T22:55:27.260Z,63.92
2022-11-30T22:57:55.140Z,63.20
2022-11-30T23:00:23.187Z,65.75
2022-11-30T23:05:43.139Z,58.05
2022-11-30T23:08:11.230Z,71.90
2022-11-30T23:10:39.149Z,64.95
2022-11-30T23:13:07.200Z,68.70
2022-11-30T23:15:35.428Z,70.60
2022-11-30T23:18:03.200Z,71.80
2022-11-30T23:20:31.203Z,62.15
2022-11-30T23:22:59.208Z,67.40
2022-11-30T23:25:31.256Z,59.20
2022-11-30T23:28:04.183Z,65.57
2022-11-30T23:30:32.065Z,65.82
2022-11-30T23:33:30.186Z,66.78
2022-11-30T23:35:57.365Z,62.63
2022-11-30T23:38:25.167Z,62.63
2022-11-30T23:40:53.131Z,69.45
2022-11-30T23:43:21.184Z,62.67
2022-11-30T23:45:49.136Z,58.00
2022-11-30T23:48:17.160Z,66.15
2022-11-30T23:50:50.403Z,62.95
2022-11-30T23:53:17.252Z,70.47
2022-11-30T23:55:45.369Z,68.63
2022-11-30T23:58:13.291Z,65.20
